< Typhoon 195118 1951 Season Typhoon 195120 >
Typhoon 195119 (WANDA)
General InformationTrack Information on Google Maps || Disaster Info.ResourceGoogle EarthGE AnimationAtom FeedGeoJSON
Detalied Best Track (Time Zone = UTC)
Year Month Day Hour Lat. Long. Pressure (hPa) Wind (kt) Class Image Chart
1951 11 16 12 9.0 143.0 1006 0 2 -- Chart
1951 11 16 18 9.0 141.5 1004 0 2 -- Chart
1951 11 17 00 9.0 140.0 1002 0 2 -- Chart
1951 11 17 06 9.0 138.5 1000 0 2 -- Chart
1951 11 17 12 9.1 137.0 1000 0 2 -- Chart
1951 11 17 18 9.2 135.9 1000 0 2 -- Chart
1951 11 18 00 9.4 134.6 996 0 9 -- Chart
1951 11 18 06 9.7 133.4 990 0 9 -- Chart
1951 11 18 12 10.1 132.6 990 0 9 -- Chart
1951 11 18 18 10.5 131.7 990 0 9 -- Chart
1951 11 19 00 10.7 130.9 990 0 9 -- Chart
1951 11 19 06 10.7 130.0 990 0 9 -- Chart
1951 11 19 12 10.7 129.2 990 0 9 -- Chart
1951 11 19 18 10.7 128.3 985 0 9 -- Chart
1951 11 20 00 10.7 127.5 985 0 9 -- Chart
1951 11 20 06 11.0 126.3 985 0 9 -- Chart
1951 11 20 12 11.5 125.2 985 0 9 -- Chart
1951 11 20 18 12.0 124.3 985 0 9 -- Chart
1951 11 21 00 12.4 123.3 990 0 9 -- Chart
1951 11 21 06 12.6 122.5 990 0 9 -- Chart
1951 11 21 12 12.8 121.6 990 0 9 -- Chart
1951 11 21 18 13.0 120.7 990 0 9 -- Chart
1951 11 22 00 13.2 119.7 990 0 9 -- Chart
1951 11 22 06 13.4 118.8 990 0 9 -- Chart
1951 11 22 12 13.6 118.0 990 0 9 -- Chart
1951 11 22 18 14.2 117.2 990 0 9 -- Chart
1951 11 23 00 14.7 116.4 990 0 9 -- Chart
1951 11 23 06 15.1 115.9 990 0 9 -- Chart
1951 11 23 12 15.1 115.2 990 0 9 -- Chart
1951 11 23 18 15.0 114.6 990 0 9 -- Chart
1951 11 24 00 14.8 114.0 992 0 9 -- Chart
1951 11 24 06 14.6 113.4 992 0 9 -- Chart
1951 11 24 12 14.2 112.4 992 0 9 -- Chart
1951 11 24 18 13.8 111.5 992 0 9 -- Chart
1951 11 25 00 13.4 110.5 995 0 9 -- Chart
1951 11 25 06 13.0 109.5 995 0 9 -- Chart
1951 11 25 12 12.9 108.5 1000 0 9 -- Chart
1951 11 25 18 12.8 107.5 1000 0 9 -- Chart
1951 11 26 00 12.7 106.5 1005 0 9 -- Chart
Japan Meteorological Agency Best Track Data | Correction Date : 1989-06-01
< Typhoon 195118 1951 Season Typhoon 195120 >

Help